sensor_id;sensor_type;location;lat;lon;timestamp;P1;durP1;ratioP1;P2;durP2;ratioP2
58468;SDS011;44257;44.804;10.220;2024-02-21T00:01:06;26.13;;;17.60;;
58468;SDS011;44257;44.804;10.220;2024-02-21T00:03:32;25.65;;;16.52;;
58468;SDS011;44257;44.804;10.220;2024-02-21T00:05:58;24.20;;;16.02;;
58468;SDS011;44257;44.804;10.220;2024-02-21T00:08:24;26.27;;;17.70;;
58468;SDS011;44257;44.804;10.220;2024-02-21T00:10:50;23.90;;;16.92;;
58468;SDS011;44257;44.804;10.220;2024-02-21T00:13:16;24.90;;;16.67;;
58468;SDS011;44257;44.804;10.220;2024-02-21T00:15:42;23.65;;;17.10;;
58468;SDS011;44257;44.804;10.220;2024-02-21T00:18:08;26.85;;;15.90;;
58468;SDS011;44257;44.804;10.220;2024-02-21T00:20:36;23.95;;;15.98;;
58468;SDS011;44257;44.804;10.220;2024-02-21T00:23:02;26.45;;;16.80;;
58468;SDS011;44257;44.804;10.220;2024-02-21T00:25:31;26.08;;;16.23;;
58468;SDS011;44257;44.804;10.220;2024-02-21T00:27:57;23.33;;;15.57;;
58468;SDS011;44257;44.804;10.220;2024-02-21T00:30:23;23.42;;;16.00;;
58468;SDS011;44257;44.804;10.220;2024-02-21T00:32:49;23.77;;;15.48;;
58468;SDS011;44257;44.804;10.220;2024-02-21T00:35:15;24.48;;;16.15;;
58468;SDS011;44257;44.804;10.220;2024-02-21T00:37:41;25.00;;;16.13;;
58468;SDS011;44257;44.804;10.220;2024-02-21T00:40:07;23.88;;;15.23;;
58468;SDS011;44257;44.804;10.220;2024-02-21T00:42:33;23.52;;;15.55;;
58468;SDS011;44257;44.804;10.220;2024-02-21T00:44:59;23.25;;;15.25;;
58468;SDS011;44257;44.804;10.220;2024-02-21T00:47:25;22.95;;;15.52;;
58468;SDS011;44257;44.804;10.220;2024-02-21T00:49:51;23.48;;;15.15;;
58468;SDS011;44257;44.804;10.220;2024-02-21T00:52:17;21.40;;;15.18;;
58468;SDS011;44257;44.804;10.220;2024-02-21T00:54:43;23.88;;;15.27;;
58468;SDS011;44257;44.804;10.220;2024-02-21T00:57:09;21.58;;;13.95;;
58468;SDS011;44257;44.804;10.220;2024-02-21T00:59:35;24.33;;;14.90;;
58468;SDS011;44257;44.804;10.220;2024-02-21T01:02:01;23.00;;;15.25;;
58468;SDS011;44257;44.804;10.220;2024-02-21T01:04:26;23.33;;;14.95;;
58468;SDS011;44257;44.804;10.220;2024-02-21T01:06:52;25.42;;;14.90;;
58468;SDS011;44257;44.804;10.220;2024-02-21T01:09:18;23.25;;;15.05;;
58468;SDS011;44257;44.804;10.220;2024-02-21T01:11:44;22.45;;;13.73;;
58468;SDS011;44257;44.804;10.220;2024-02-21T01:14:10;23.10;;;15.20;;
58468;SDS011;44257;44.804;10.220;2024-02-21T01:16:36;21.73;;;14.48;;
58468;SDS011;44257;44.804;10.220;2024-02-21T01:19:02;21.77;;;14.52;;
58468;SDS011;44257;44.804;10.220;2024-02-21T01:21:28;21.00;;;14.57;;
58468;SDS011;44257;44.804;10.220;2024-02-21T01:23:54;22.88;;;14.55;;
58468;SDS011;44257;44.804;10.220;2024-02-21T01:26:20;23.92;;;15.38;;
58468;SDS011;44257;44.804;10.220;2024-02-21T01:28:46;23.65;;;14.52;;
58468;SDS011;44257;44.804;10.220;2024-02-21T01:31:12;21.88;;;13.60;;
58468;SDS011;44257;44.804;10.220;2024-02-21T01:33:40;22.15;;;14.73;;
58468;SDS011;44257;44.804;10.220;2024-02-21T01:36:06;20.67;;;13.63;;
58468;SDS011;44257;44.804;10.220;2024-02-21T01:38:32;22.70;;;15.20;;
58468;SDS011;44257;44.804;10.220;2024-02-21T01:40:58;22.83;;;13.70;;
58468;SDS011;44257;44.804;10.220;2024-02-21T01:43:24;23.42;;;14.80;;
58468;SDS011;44257;44.804;10.220;2024-02-21T01:45:50;20.50;;;13.48;;
58468;SDS011;44257;44.804;10.220;2024-02-21T01:48:19;23.95;;;14.27;;
58468;SDS011;44257;44.804;10.220;2024-02-21T01:50:45;22.55;;;13.50;;
58468;SDS011;44257;44.804;10.220;2024-02-21T01:53:34;19.73;;;13.57;;
58468;SDS011;44257;44.804;10.220;2024-02-21T01:56:03;21.05;;;13.50;;
58468;SDS011;44257;44.804;10.220;2024-02-21T01:58:30;23.00;;;13.73;;
58468;SDS011;44257;44.804;10.220;2024-02-21T02:00:58;20.40;;;13.75;;
58468;SDS011;44257;44.804;10.220;2024-02-21T02:03:24;21.05;;;14.23;;
58468;SDS011;44257;44.804;10.220;2024-02-21T02:05:51;20.55;;;13.20;;
58468;SDS011;44257;44.804;10.220;2024-02-21T02:08:17;19.80;;;13.65;;
58468;SDS011;44257;44.804;10.220;2024-02-21T02:10:45;22.00;;;13.63;;
58468;SDS011;44257;44.804;10.220;2024-02-21T02:13:11;19.73;;;13.43;;
58468;SDS011;44257;44.804;10.220;2024-02-21T02:18:06;21.85;;;14.07;;
58468;SDS011;44257;44.804;10.220;2024-02-21T02:20:33;21.35;;;13.73;;
58468;SDS011;44257;44.804;10.220;2024-02-21T02:23:00;20.02;;;14.38;;
58468;SDS011;44257;44.804;10.220;2024-02-21T02:25:34;20.50;;;13.68;;
58468;SDS011;44257;44.804;10.220;2024-02-21T02:28:04;23.35;;;13.80;;
58468;SDS011;44257;44.804;10.220;2024-02-21T02:30:32;18.55;;;13.60;;
58468;SDS011;44257;44.804;10.220;2024-02-21T02:32:59;20.40;;;13.13;;
58468;SDS011;44257;44.804;10.220;2024-02-21T02:35:25;22.95;;;14.40;;
58468;SDS011;44257;44.804;10.220;2024-02-21T02:37:51;21.50;;;14.45;;
58468;SDS011;44257;44.804;10.220;2024-02-21T02:40:20;20.70;;;13.27;;
58468;SDS011;44257;44.804;10.220;2024-02-21T02:42:45;17.52;;;12.02;;
58468;SDS011;44257;44.804;10.220;2024-02-21T02:45:12;20.35;;;12.73;;
58468;SDS011;44257;44.804;10.220;2024-02-21T02:47:39;19.50;;;12.75;;
58468;SDS011;44257;44.804;10.220;2024-02-21T02:50:05;20.88;;;12.88;;
58468;SDS011;44257;44.804;10.220;2024-02-21T02:52:32;19.85;;;12.60;;
58468;SDS011;44257;44.804;10.220;2024-02-21T02:54:58;20.88;;;13.45;;
58468;SDS011;44257;44.804;10.220;2024-02-21T02:57:24;18.95;;;12.55;;
58468;SDS011;44257;44.804;10.220;2024-02-21T02:59:50;19.52;;;13.10;;
58468;SDS011;44257;44.804;10.220;2024-02-21T03:02:17;21.25;;;12.85;;
58468;SDS011;44257;44.804;10.220;2024-02-21T03:04:43;21.30;;;13.23;;
58468;SDS011;44257;44.804;10.220;2024-02-21T03:07:09;21.50;;;12.70;;
58468;SDS011;44257;44.804;10.220;2024-02-21T03:09:36;21.52;;;13.38;;
58468;SDS011;44257;44.804;10.220;2024-02-21T03:12:03;21.65;;;13.23;;
58468;SDS011;44257;44.804;10.220;2024-02-21T03:14:30;22.20;;;14.02;;
58468;SDS011;44257;44.804;10.220;2024-02-21T03:16:56;21.92;;;13.20;;
58468;SDS011;44257;44.804;10.220;2024-02-21T03:19:25;21.75;;;13.32;;
58468;SDS011;44257;44.804;10.220;2024-02-21T03:21:52;19.27;;;13.10;;
58468;SDS011;44257;44.804;10.220;2024-02-21T03:24:18;20.50;;;13.15;;
58468;SDS011;44257;44.804;10.220;2024-02-21T03:26:44;21.73;;;14.20;;
58468;SDS011;44257;44.804;10.220;2024-02-21T03:29:12;21.48;;;14.27;;
58468;SDS011;44257;44.804;10.220;2024-02-21T03:31:39;25.65;;;14.63;;
58468;SDS011;44257;44.804;10.220;2024-02-21T03:34:05;25.08;;;15.05;;
58468;SDS011;44257;44.804;10.220;2024-02-21T03:36:31;21.25;;;13.68;;
58468;SDS011;44257;44.804;10.220;2024-02-21T03:38:57;25.17;;;14.95;;
58468;SDS011;44257;44.804;10.220;2024-02-21T03:41:23;21.52;;;13.43;;
58468;SDS011;44257;44.804;10.220;2024-02-21T03:43:49;20.75;;;13.18;;
58468;SDS011;44257;44.804;10.220;2024-02-21T03:46:15;21.52;;;13.13;;
58468;SDS011;44257;44.804;10.220;2024-02-21T03:48:41;20.60;;;13.23;;
58468;SDS011;44257;44.804;10.220;2024-02-21T03:51:07;20.00;;;12.30;;
58468;SDS011;44257;44.804;10.220;2024-02-21T03:53:33;23.73;;;12.52;;
58468;SDS011;44257;44.804;10.220;2024-02-21T03:56:02;20.55;;;12.75;;
58468;SDS011;44257;44.804;10.220;2024-02-21T03:58:29;23.27;;;13.10;;
58468;SDS011;44257;44.804;10.220;2024-02-21T04:00:56;19.95;;;12.80;;
58468;SDS011;44257;44.804;10.220;2024-02-21T04:03:22;17.88;;;12.02;;
58468;SDS011;44257;44.804;10.220;2024-02-21T04:05:48;17.50;;;11.43;;
58468;SDS011;44257;44.804;10.220;2024-02-21T04:08:14;17.08;;;11.05;;
58468;SDS011;44257;44.804;10.220;2024-02-21T04:10:39;20.75;;;12.25;;
58468;SDS011;44257;44.804;10.220;2024-02-21T04:13:06;20.55;;;11.73;;
58468;SDS011;44257;44.804;10.220;2024-02-21T04:15:32;17.95;;;11.55;;
58468;SDS011;44257;44.804;10.220;2024-02-21T04:17:58;21.50;;;12.25;;
58468;SDS011;44257;44.804;10.220;2024-02-21T04:20:24;17.75;;;11.18;;
58468;SDS011;44257;44.804;10.220;2024-02-21T04:22:50;19.83;;;11.88;;
58468;SDS011;44257;44.804;10.220;2024-02-21T04:25:16;19.63;;;11.65;;
58468;SDS011;44257;44.804;10.220;2024-02-21T04:27:42;17.90;;;12.25;;
58468;SDS011;44257;44.804;10.220;2024-02-21T04:30:09;17.42;;;12.18;;
58468;SDS011;44257;44.804;10.220;2024-02-21T04:32:35;19.73;;;11.88;;
58468;SDS011;44257;44.804;10.220;2024-02-21T04:35:01;21.92;;;12.95;;
58468;SDS011;44257;44.804;10.220;2024-02-21T04:37:27;19.25;;;12.43;;
58468;SDS011;44257;44.804;10.220;2024-02-21T04:39:53;18.98;;;11.98;;
58468;SDS011;44257;44.804;10.220;2024-02-21T04:42:18;20.55;;;12.07;;
58468;SDS011;44257;44.804;10.220;2024-02-21T04:44:45;19.75;;;12.18;;
58468;SDS011;44257;44.804;10.220;2024-02-21T04:47:10;17.48;;;11.30;;
58468;SDS011;44257;44.804;10.220;2024-02-21T04:49:36;16.17;;;11.50;;
58468;SDS011;44257;44.804;10.220;2024-02-21T04:52:02;19.52;;;11.25;;
58468;SDS011;44257;44.804;10.220;2024-02-21T04:54:28;19.27;;;12.05;;
58468;SDS011;44257;44.804;10.220;2024-02-21T04:56:54;18.88;;;11.55;;
58468;SDS011;44257;44.804;10.220;2024-02-21T04:59:20;15.23;;;10.60;;
58468;SDS011;44257;44.804;10.220;2024-02-21T05:01:46;17.33;;;11.38;;
58468;SDS011;44257;44.804;10.220;2024-02-21T05:04:12;18.48;;;11.07;;
58468;SDS011;44257;44.804;10.220;2024-02-21T05:06:38;19.25;;;12.40;;
58468;SDS011;44257;44.804;10.220;2024-02-21T05:09:04;18.65;;;10.77;;
58468;SDS011;44257;44.804;10.220;2024-02-21T05:11:31;15.30;;;10.77;;
58468;SDS011;44257;44.804;10.220;2024-02-21T05:13:57;17.45;;;10.65;;
58468;SDS011;44257;44.804;10.220;2024-02-21T05:16:23;19.45;;;11.45;;
58468;SDS011;44257;44.804;10.220;2024-02-21T05:18:49;19.65;;;11.68;;
58468;SDS011;44257;44.804;10.220;2024-02-21T05:21:15;20.88;;;12.43;;
58468;SDS011;44257;44.804;10.220;2024-02-21T05:23:41;20.35;;;11.48;;
58468;SDS011;44257;44.804;10.220;2024-02-21T05:26:07;19.20;;;12.55;;
58468;SDS011;44257;44.804;10.220;2024-02-21T05:28:33;18.90;;;11.70;;
58468;SDS011;44257;44.804;10.220;2024-02-21T05:30:59;18.02;;;12.38;;
58468;SDS011;44257;44.804;10.220;2024-02-21T05:33:24;19.30;;;11.77;;
58468;SDS011;44257;44.804;10.220;2024-02-21T05:35:50;17.77;;;11.57;;
58468;SDS011;44257;44.804;10.220;2024-02-21T05:38:17;24.65;;;12.07;;
58468;SDS011;44257;44.804;10.220;2024-02-21T05:40:44;19.10;;;11.82;;
58468;SDS011;44257;44.804;10.220;2024-02-21T05:43:10;19.50;;;12.18;;
58468;SDS011;44257;44.804;10.220;2024-02-21T05:45:36;19.80;;;12.73;;
58468;SDS011;44257;44.804;10.220;2024-02-21T05:48:03;18.83;;;11.73;;
58468;SDS011;44257;44.804;10.220;2024-02-21T05:50:29;20.23;;;11.93;;
58468;SDS011;44257;44.804;10.220;2024-02-21T05:52:55;24.00;;;12.68;;
58468;SDS011;44257;44.804;10.220;2024-02-21T05:55:22;19.45;;;11.30;;
58468;SDS011;44257;44.804;10.220;2024-02-21T05:57:48;23.13;;;11.38;;
58468;SDS011;44257;44.804;10.220;2024-02-21T06:00:14;26.42;;;12.27;;
58468;SDS011;44257;44.804;10.220;2024-02-21T06:02:41;24.42;;;11.60;;
58468;SDS011;44257;44.804;10.220;2024-02-21T06:05:07;23.35;;;11.02;;
58468;SDS011;44257;44.804;10.220;2024-02-21T06:07:34;20.30;;;10.63;;
58468;SDS011;44257;44.804;10.220;2024-02-21T06:10:01;19.15;;;10.82;;
58468;SDS011;44257;44.804;10.220;2024-02-21T06:12:27;19.05;;;11.05;;
58468;SDS011;44257;44.804;10.220;2024-02-21T06:14:53;17.27;;;10.82;;
58468;SDS011;44257;44.804;10.220;2024-02-21T06:17:19;19.80;;;10.85;;
58468;SDS011;44257;44.804;10.220;2024-02-21T06:19:45;19.45;;;10.45;;
58468;SDS011;44257;44.804;10.220;2024-02-21T06:22:11;19.08;;;11.52;;
58468;SDS011;44257;44.804;10.220;2024-02-21T06:24:37;17.65;;;10.90;;
58468;SDS011;44257;44.804;10.220;2024-02-21T06:27:06;18.65;;;10.75;;
58468;SDS011;44257;44.804;10.220;2024-02-21T06:29:33;17.98;;;10.68;;
58468;SDS011;44257;44.804;10.220;2024-02-21T06:32:00;38.50;;;12.57;;
58468;SDS011;44257;44.804;10.220;2024-02-21T06:34:26;21.92;;;11.30;;
58468;SDS011;44257;44.804;10.220;2024-02-21T06:36:53;18.05;;;11.75;;
58468;SDS011;44257;44.804;10.220;2024-02-21T06:39:19;20.95;;;11.05;;
58468;SDS011;44257;44.804;10.220;2024-02-21T06:41:45;19.75;;;10.88;;
58468;SDS011;44257;44.804;10.220;2024-02-21T06:44:12;37.63;;;12.85;;
58468;SDS011;44257;44.804;10.220;2024-02-21T06:46:37;25.35;;;11.52;;
58468;SDS011;44257;44.804;10.220;2024-02-21T06:49:03;22.23;;;11.77;;
58468;SDS011;44257;44.804;10.220;2024-02-21T06:51:29;21.63;;;11.57;;
58468;SDS011;44257;44.804;10.220;2024-02-21T06:53:55;21.27;;;12.23;;
58468;SDS011;44257;44.804;10.220;2024-02-21T06:56:24;24.50;;;10.68;;
58468;SDS011;44257;44.804;10.220;2024-02-21T06:58:56;20.58;;;12.10;;
58468;SDS011;44257;44.804;10.220;2024-02-21T07:01:22;21.10;;;11.40;;
58468;SDS011;44257;44.804;10.220;2024-02-21T07:03:51;17.17;;;10.77;;
58468;SDS011;44257;44.804;10.220;2024-02-21T07:06:17;19.00;;;11.50;;
58468;SDS011;44257;44.804;10.220;2024-02-21T07:08:43;19.35;;;11.35;;
58468;SDS011;44257;44.804;10.220;2024-02-21T07:11:09;22.65;;;11.23;;
58468;SDS011;44257;44.804;10.220;2024-02-21T07:13:36;15.02;;;10.25;;
58468;SDS011;44257;44.804;10.220;2024-02-21T07:16:01;18.20;;;10.60;;
58468;SDS011;44257;44.804;10.220;2024-02-21T07:18:27;16.40;;;9.93;;
58468;SDS011;44257;44.804;10.220;2024-02-21T07:20:53;15.70;;;10.43;;
58468;SDS011;44257;44.804;10.220;2024-02-21T07:23:19;15.95;;;10.82;;
58468;SDS011;44257;44.804;10.220;2024-02-21T07:25:45;21.17;;;10.40;;
58468;SDS011;44257;44.804;10.220;2024-02-21T07:28:11;18.65;;;10.50;;
58468;SDS011;44257;44.804;10.220;2024-02-21T07:30:38;16.63;;;9.75;;
58468;SDS011;44257;44.804;10.220;2024-02-21T07:33:04;17.20;;;10.07;;
58468;SDS011;44257;44.804;10.220;2024-02-21T07:35:32;15.30;;;9.90;;
58468;SDS011;44257;44.804;10.220;2024-02-21T07:37:58;15.85;;;9.98;;
58468;SDS011;44257;44.804;10.220;2024-02-21T07:40:24;16.60;;;10.85;;
58468;SDS011;44257;44.804;10.220;2024-02-21T07:42:50;16.63;;;10.25;;
58468;SDS011;44257;44.804;10.220;2024-02-21T07:45:16;16.92;;;9.73;;
58468;SDS011;44257;44.804;10.220;2024-02-21T07:47:43;21.88;;;10.93;;
58468;SDS011;44257;44.804;10.220;2024-02-21T07:50:09;33.78;;;11.18;;
58468;SDS011;44257;44.804;10.220;2024-02-21T07:52:35;18.70;;;11.18;;
58468;SDS011;44257;44.804;10.220;2024-02-21T07:55:01;17.45;;;9.63;;
58468;SDS011;44257;44.804;10.220;2024-02-21T07:57:27;18.42;;;10.90;;
58468;SDS011;44257;44.804;10.220;2024-02-21T07:59:54;17.73;;;10.40;;
58468;SDS011;44257;44.804;10.220;2024-02-21T08:02:20;15.25;;;10.27;;
58468;SDS011;44257;44.804;10.220;2024-02-21T08:04:46;18.10;;;10.30;;
58468;SDS011;44257;44.804;10.220;2024-02-21T08:07:12;18.40;;;11.43;;
58468;SDS011;44257;44.804;10.220;2024-02-21T08:09:39;16.70;;;11.18;;
58468;SDS011;44257;44.804;10.220;2024-02-21T08:12:05;19.63;;;11.38;;
58468;SDS011;44257;44.804;10.220;2024-02-21T08:14:31;15.23;;;9.98;;
58468;SDS011;44257;44.804;10.220;2024-02-21T08:16:57;18.80;;;11.63;;
58468;SDS011;44257;44.804;10.220;2024-02-21T08:19:27;17.30;;;11.10;;
58468;SDS011;44257;44.804;10.220;2024-02-21T08:21:53;19.33;;;11.68;;
58468;SDS011;44257;44.804;10.220;2024-02-21T08:24:19;18.63;;;12.20;;
58468;SDS011;44257;44.804;10.220;2024-02-21T08:26:45;20.92;;;13.30;;
58468;SDS011;44257;44.804;10.220;2024-02-21T08:29:11;26.98;;;16.85;;
58468;SDS011;44257;44.804;10.220;2024-02-21T08:31:37;29.50;;;18.75;;
58468;SDS011;44257;44.804;10.220;2024-02-21T08:34:03;29.67;;;18.33;;
58468;SDS011;44257;44.804;10.220;2024-02-21T08:36:30;32.65;;;19.63;;
58468;SDS011;44257;44.804;10.220;2024-02-21T08:38:57;33.63;;;22.17;;
58468;SDS011;44257;44.804;10.220;2024-02-21T08:41:24;33.90;;;22.70;;
58468;SDS011;44257;44.804;10.220;2024-02-21T08:43:51;40.55;;;25.08;;
58468;SDS011;44257;44.804;10.220;2024-02-21T08:46:22;39.10;;;25.90;;
58468;SDS011;44257;44.804;10.220;2024-02-21T08:48:51;43.83;;;27.33;;
58468;SDS011;44257;44.804;10.220;2024-02-21T08:51:18;47.20;;;29.17;;
58468;SDS011;44257;44.804;10.220;2024-02-21T08:53:45;48.33;;;31.38;;
58468;SDS011;44257;44.804;10.220;2024-02-21T08:56:11;55.63;;;34.13;;
58468;SDS011;44257;44.804;10.220;2024-02-21T08:58:38;52.20;;;34.35;;
58468;SDS011;44257;44.804;10.220;2024-02-21T09:01:05;56.35;;;35.85;;
58468;SDS011;44257;44.804;10.220;2024-02-21T09:03:38;53.00;;;36.38;;
58468;SDS011;44257;44.804;10.220;2024-02-21T09:06:05;56.83;;;37.65;;
58468;SDS011;44257;44.804;10.220;2024-02-21T09:08:32;55.90;;;37.50;;
58468;SDS011;44257;44.804;10.220;2024-02-21T09:10:59;59.50;;;37.25;;
58468;SDS011;44257;44.804;10.220;2024-02-21T09:13:28;57.08;;;37.38;;
58468;SDS011;44257;44.804;10.220;2024-02-21T09:15:55;54.38;;;35.67;;
58468;SDS011;44257;44.804;10.220;2024-02-21T09:18:21;55.97;;;36.53;;
58468;SDS011;44257;44.804;10.220;2024-02-21T09:20:47;57.45;;;38.45;;
58468;SDS011;44257;44.804;10.220;2024-02-21T09:23:13;58.95;;;38.75;;
58468;SDS011;44257;44.804;10.220;2024-02-21T09:25:39;55.83;;;37.55;;
58468;SDS011;44257;44.804;10.220;2024-02-21T09:28:05;57.08;;;39.20;;
58468;SDS011;44257;44.804;10.220;2024-02-21T09:30:34;59.75;;;38.30;;
58468;SDS011;44257;44.804;10.220;2024-02-21T09:33:00;62.03;;;40.95;;
58468;SDS011;44257;44.804;10.220;2024-02-21T09:35:27;60.55;;;40.70;;
58468;SDS011;44257;44.804;10.220;2024-02-21T09:37:53;65.38;;;40.80;;
58468;SDS011;44257;44.804;10.220;2024-02-21T09:40:20;60.17;;;40.25;;
58468;SDS011;44257;44.804;10.220;2024-02-21T09:42:46;58.97;;;39.33;;
58468;SDS011;44257;44.804;10.220;2024-02-21T09:45:25;59.17;;;39.38;;
58468;SDS011;44257;44.804;10.220;2024-02-21T09:50:36;63.15;;;39.63;;
58468;SDS011;44257;44.804;10.220;2024-02-21T09:53:06;60.33;;;40.13;;
58468;SDS011;44257;44.804;10.220;2024-02-21T09:55:36;61.90;;;40.65;;
58468;SDS011;44257;44.804;10.220;2024-02-21T09:58:05;60.10;;;39.55;;
58468;SDS011;44257;44.804;10.220;2024-02-21T10:00:32;60.85;;;41.28;;
58468;SDS011;44257;44.804;10.220;2024-02-21T10:02:58;61.03;;;39.80;;
58468;SDS011;44257;44.804;10.220;2024-02-21T10:05:24;61.78;;;40.35;;
58468;SDS011;44257;44.804;10.220;2024-02-21T10:07:51;60.00;;;41.10;;
58468;SDS011;44257;44.804;10.220;2024-02-21T10:10:17;62.05;;;41.53;;
58468;SDS011;44257;44.804;10.220;2024-02-21T10:12:52;65.60;;;43.30;;
58468;SDS011;44257;44.804;10.220;2024-02-21T10:15:23;64.95;;;43.25;;
58468;SDS011;44257;44.804;10.220;2024-02-21T10:17:53;67.35;;;44.03;;
58468;SDS011;44257;44.804;10.220;2024-02-21T10:20:24;65.57;;;44.63;;
58468;SDS011;44257;44.804;10.220;2024-02-21T10:22:59;67.35;;;45.13;;
58468;SDS011;44257;44.804;10.220;2024-02-21T10:25:33;66.85;;;44.20;;
58468;SDS011;44257;44.804;10.220;2024-02-21T10:28:00;64.57;;;43.60;;
58468;SDS011;44257;44.804;10.220;2024-02-21T10:30:28;67.70;;;43.45;;
58468;SDS011;44257;44.804;10.220;2024-02-21T10:32:54;63.03;;;43.75;;
58468;SDS011;44257;44.804;10.220;2024-02-21T10:35:29;67.43;;;45.33;;
58468;SDS011;44257;44.804;10.220;2024-02-21T10:37:58;69.85;;;46.28;;
58468;SDS011;44257;44.804;10.220;2024-02-21T10:40:25;69.95;;;47.08;;
58468;SDS011;44257;44.804;10.220;2024-02-21T10:42:58;69.18;;;48.63;;
58468;SDS011;44257;44.804;10.220;2024-02-21T10:45:29;67.60;;;47.75;;
58468;SDS011;44257;44.804;10.220;2024-02-21T10:56:29;70.47;;;46.15;;
58468;SDS011;44257;44.804;10.220;2024-02-21T10:59:02;71.18;;;45.25;;
58468;SDS011;44257;44.804;10.220;2024-02-21T11:01:32;67.90;;;45.67;;
58468;SDS011;44257;44.804;10.220;2024-02-21T11:04:04;65.65;;;44.33;;
58468;SDS011;44257;44.804;10.220;2024-02-21T11:06:32;70.10;;;47.50;;
58468;SDS011;44257;44.804;10.220;2024-02-21T11:09:03;72.25;;;46.72;;
58468;SDS011;44257;44.804;10.220;2024-02-21T11:11:40;67.88;;;45.13;;
58468;SDS011;44257;44.804;10.220;2024-02-21T11:14:08;65.88;;;46.00;;
58468;SDS011;44257;44.804;10.220;2024-02-21T11:16:36;63.83;;;43.88;;
58468;SDS011;44257;44.804;10.220;2024-02-21T11:19:07;63.28;;;44.97;;
58468;SDS011;44257;44.804;10.220;2024-02-21T11:21:35;66.57;;;44.33;;
58468;SDS011;44257;44.804;10.220;2024-02-21T11:24:06;60.90;;;42.38;;
58468;SDS011;44257;44.804;10.220;2024-02-21T11:26:32;63.47;;;42.35;;
58468;SDS011;44257;44.804;10.220;2024-02-21T11:29:02;60.35;;;42.28;;
58468;SDS011;44257;44.804;10.220;2024-02-21T11:31:39;58.58;;;41.53;;
58468;SDS011;44257;44.804;10.220;2024-02-21T11:34:12;57.33;;;41.58;;
58468;SDS011;44257;44.804;10.220;2024-02-21T11:39:21;57.00;;;38.85;;
58468;SDS011;44257;44.804;10.220;2024-02-21T11:42:09;58.60;;;40.67;;
58468;SDS011;44257;44.804;10.220;2024-02-21T11:44:34;56.25;;;38.00;;
58468;SDS011;44257;44.804;10.220;2024-02-21T11:47:05;55.70;;;39.00;;
58468;SDS011;44257;44.804;10.220;2024-02-21T11:49:36;59.58;;;38.47;;
58468;SDS011;44257;44.804;10.220;2024-02-21T11:52:06;53.88;;;37.97;;
58468;SDS011;44257;44.804;10.220;2024-02-21T11:54:33;55.80;;;40.22;;
58468;SDS011;44257;44.804;10.220;2024-02-21T11:56:59;58.15;;;39.88;;
58468;SDS011;44257;44.804;10.220;2024-02-21T11:59:26;56.63;;;38.90;;
58468;SDS011;44257;44.804;10.220;2024-02-21T12:01:55;55.13;;;37.58;;
58468;SDS011;44257;44.804;10.220;2024-02-21T12:04:24;54.65;;;39.63;;
58468;SDS011;44257;44.804;10.220;2024-02-21T12:06:50;56.00;;;38.40;;
58468;SDS011;44257;44.804;10.220;2024-02-21T12:09:18;55.67;;;39.20;;
58468;SDS011;44257;44.804;10.220;2024-02-21T12:11:44;53.63;;;38.63;;
58468;SDS011;44257;44.804;10.220;2024-02-21T12:14:15;54.20;;;38.88;;
58468;SDS011;44257;44.804;10.220;2024-02-21T12:16:42;56.10;;;38.72;;
58468;SDS011;44257;44.804;10.220;2024-02-21T12:19:12;55.15;;;39.17;;
58468;SDS011;44257;44.804;10.220;2024-02-21T12:21:39;56.92;;;38.80;;
58468;SDS011;44257;44.804;10.220;2024-02-21T12:26:40;55.70;;;38.78;;
58468;SDS011;44257;44.804;10.220;2024-02-21T12:29:06;54.17;;;37.90;;
58468;SDS011;44257;44.804;10.220;2024-02-21T12:31:37;53.72;;;37.67;;
58468;SDS011;44257;44.804;10.220;2024-02-21T12:34:04;55.67;;;39.80;;
58468;SDS011;44257;44.804;10.220;2024-02-21T12:36:31;52.78;;;38.17;;
58468;SDS011;44257;44.804;10.220;2024-02-21T12:38:58;57.92;;;39.45;;
58468;SDS011;44257;44.804;10.220;2024-02-21T12:41:24;48.25;;;36.35;;
58468;SDS011;44257;44.804;10.220;2024-02-21T12:43:53;49.92;;;36.75;;
58468;SDS011;44257;44.804;10.220;2024-02-21T12:46:19;51.72;;;37.97;;
58468;SDS011;44257;44.804;10.220;2024-02-21T12:48:45;54.13;;;37.40;;
58468;SDS011;44257;44.804;10.220;2024-02-21T12:51:11;51.03;;;36.67;;
58468;SDS011;44257;44.804;10.220;2024-02-21T12:53:37;49.58;;;36.10;;
58468;SDS011;44257;44.804;10.220;2024-02-21T12:56:03;50.92;;;37.35;;
58468;SDS011;44257;44.804;10.220;2024-02-21T12:58:30;53.45;;;36.30;;
58468;SDS011;44257;44.804;10.220;2024-02-21T13:00:56;50.70;;;37.88;;
58468;SDS011;44257;44.804;10.220;2024-02-21T13:03:22;51.05;;;38.58;;
58468;SDS011;44257;44.804;10.220;2024-02-21T13:05:49;51.20;;;38.45;;
58468;SDS011;44257;44.804;10.220;2024-02-21T13:08:15;52.08;;;37.80;;
58468;SDS011;44257;44.804;10.220;2024-02-21T13:10:41;49.38;;;36.53;;
58468;SDS011;44257;44.804;10.220;2024-02-21T13:13:07;52.60;;;38.47;;
58468;SDS011;44257;44.804;10.220;2024-02-21T13:15:33;47.85;;;35.53;;
58468;SDS011;44257;44.804;10.220;2024-02-21T13:17:59;51.58;;;35.38;;
58468;SDS011;44257;44.804;10.220;2024-02-21T13:20:25;49.67;;;37.58;;
58468;SDS011;44257;44.804;10.220;2024-02-21T13:22:52;46.65;;;36.80;;
58468;SDS011;44257;44.804;10.220;2024-02-21T13:25:18;50.45;;;38.38;;
58468;SDS011;44257;44.804;10.220;2024-02-21T13:27:46;53.03;;;38.97;;
58468;SDS011;44257;44.804;10.220;2024-02-21T13:30:14;53.28;;;38.90;;
58468;SDS011;44257;44.804;10.220;2024-02-21T13:32:47;50.25;;;37.75;;
58468;SDS011;44257;44.804;10.220;2024-02-21T13:35:13;51.13;;;38.28;;
58468;SDS011;44257;44.804;10.220;2024-02-21T13:37:39;48.65;;;36.85;;
58468;SDS011;44257;44.804;10.220;2024-02-21T13:40:07;47.42;;;35.22;;
58468;SDS011;44257;44.804;10.220;2024-02-21T13:42:39;49.75;;;37.05;;
58468;SDS011;44257;44.804;10.220;2024-02-21T13:45:06;49.00;;;37.65;;
58468;SDS011;44257;44.804;10.220;2024-02-21T13:47:32;47.65;;;35.80;;
58468;SDS011;44257;44.804;10.220;2024-02-21T13:49:59;46.42;;;35.75;;
58468;SDS011;44257;44.804;10.220;2024-02-21T13:52:25;48.00;;;36.72;;
58468;SDS011;44257;44.804;10.220;2024-02-21T13:54:52;46.95;;;35.70;;
58468;SDS011;44257;44.804;10.220;2024-02-21T13:57:18;47.03;;;36.03;;
58468;SDS011;44257;44.804;10.220;2024-02-21T13:59:44;49.35;;;37.10;;
58468;SDS011;44257;44.804;10.220;2024-02-21T14:02:09;46.85;;;35.28;;
58468;SDS011;44257;44.804;10.220;2024-02-21T14:04:35;48.53;;;34.58;;
58468;SDS011;44257;44.804;10.220;2024-02-21T14:07:01;47.75;;;35.60;;
58468;SDS011;44257;44.804;10.220;2024-02-21T14:09:27;43.47;;;33.55;;
58468;SDS011;44257;44.804;10.220;2024-02-21T14:11:57;46.22;;;35.08;;
58468;SDS011;44257;44.804;10.220;2024-02-21T14:14:23;46.47;;;34.10;;
58468;SDS011;44257;44.804;10.220;2024-02-21T14:16:49;49.13;;;34.05;;
58468;SDS011;44257;44.804;10.220;2024-02-21T14:19:15;46.65;;;34.65;;
58468;SDS011;44257;44.804;10.220;2024-02-21T14:21:41;49.15;;;35.85;;
58468;SDS011;44257;44.804;10.220;2024-02-21T14:24:07;49.53;;;36.42;;
58468;SDS011;44257;44.804;10.220;2024-02-21T14:26:33;48.92;;;36.08;;